sensor_id;sensor_type;location;lat;lon;timestamp;P1;durP1;ratioP1;P2;durP2;ratioP2
29314;SDS011;16320;53.954;9.506;2023-02-15T00:00:44;83.40;;;32.08;;
29314;SDS011;16320;53.954;9.506;2023-02-15T00:03:48;70.03;;;30.35;;
29314;SDS011;16320;53.954;9.506;2023-02-15T00:06:53;89.53;;;32.13;;
29314;SDS011;16320;53.954;9.506;2023-02-15T00:09:57;82.85;;;33.10;;
29314;SDS011;16320;53.954;9.506;2023-02-15T00:13:02;79.65;;;31.38;;
29314;SDS011;16320;53.954;9.506;2023-02-15T00:16:07;81.18;;;31.35;;
29314;SDS011;16320;53.954;9.506;2023-02-15T00:19:16;82.15;;;33.10;;
29314;SDS011;16320;53.954;9.506;2023-02-15T00:22:22;81.80;;;33.30;;
29314;SDS011;16320;53.954;9.506;2023-02-15T00:25:27;90.32;;;33.33;;
29314;SDS011;16320;53.954;9.506;2023-02-15T00:28:31;80.57;;;31.75;;
29314;SDS011;16320;53.954;9.506;2023-02-15T00:31:35;77.70;;;30.90;;
29314;SDS011;16320;53.954;9.506;2023-02-15T00:34:40;78.03;;;32.15;;
29314;SDS011;16320;53.954;9.506;2023-02-15T00:37:44;67.43;;;30.52;;
29314;SDS011;16320;53.954;9.506;2023-02-15T00:40:55;81.28;;;32.38;;
29314;SDS011;16320;53.954;9.506;2023-02-15T00:44:02;71.13;;;30.65;;
29314;SDS011;16320;53.954;9.506;2023-02-15T00:47:08;84.30;;;34.30;;
29314;SDS011;16320;53.954;9.506;2023-02-15T00:50:12;72.53;;;31.58;;
29314;SDS011;16320;53.954;9.506;2023-02-15T00:53:16;72.60;;;31.58;;
29314;SDS011;16320;53.954;9.506;2023-02-15T00:56:21;68.45;;;32.03;;
29314;SDS011;16320;53.954;9.506;2023-02-15T00:59:25;58.60;;;27.83;;
29314;SDS011;16320;53.954;9.506;2023-02-15T01:02:30;71.18;;;30.75;;
29314;SDS011;16320;53.954;9.506;2023-02-15T01:05:34;66.60;;;28.67;;
29314;SDS011;16320;53.954;9.506;2023-02-15T01:08:38;60.78;;;27.95;;
29314;SDS011;16320;53.954;9.506;2023-02-15T01:11:43;63.03;;;28.50;;
29314;SDS011;16320;53.954;9.506;2023-02-15T01:14:47;60.25;;;28.00;;
29314;SDS011;16320;53.954;9.506;2023-02-15T01:17:52;66.05;;;28.67;;
29314;SDS011;16320;53.954;9.506;2023-02-15T01:20:57;60.95;;;26.92;;
29314;SDS011;16320;53.954;9.506;2023-02-15T01:24:01;61.33;;;29.58;;
29314;SDS011;16320;53.954;9.506;2023-02-15T01:27:05;63.00;;;28.60;;
29314;SDS011;16320;53.954;9.506;2023-02-15T01:30:10;59.13;;;28.42;;
29314;SDS011;16320;53.954;9.506;2023-02-15T01:33:16;62.63;;;29.85;;
29314;SDS011;16320;53.954;9.506;2023-02-15T01:36:21;95.60;;;36.88;;
29314;SDS011;16320;53.954;9.506;2023-02-15T01:39:25;65.53;;;31.20;;
29314;SDS011;16320;53.954;9.506;2023-02-15T01:42:30;61.28;;;28.45;;
29314;SDS011;16320;53.954;9.506;2023-02-15T01:45:35;109.88;;;40.65;;
29314;SDS011;16320;53.954;9.506;2023-02-15T01:48:41;72.60;;;32.55;;
29314;SDS011;16320;53.954;9.506;2023-02-15T01:51:51;70.78;;;31.65;;
29314;SDS011;16320;53.954;9.506;2023-02-15T01:54:56;72.85;;;31.83;;
29314;SDS011;16320;53.954;9.506;2023-02-15T01:58:01;69.18;;;31.42;;
29314;SDS011;16320;53.954;9.506;2023-02-15T02:01:07;61.15;;;29.83;;
29314;SDS011;16320;53.954;9.506;2023-02-15T02:04:17;65.55;;;30.00;;
29314;SDS011;16320;53.954;9.506;2023-02-15T02:07:51;65.82;;;29.90;;
29314;SDS011;16320;53.954;9.506;2023-02-15T02:10:59;71.40;;;30.17;;
29314;SDS011;16320;53.954;9.506;2023-02-15T02:14:03;69.25;;;30.73;;
29314;SDS011;16320;53.954;9.506;2023-02-15T02:17:33;61.88;;;28.50;;
29314;SDS011;16320;53.954;9.506;2023-02-15T02:45:57;56.75;;;28.95;;
29314;SDS011;16320;53.954;9.506;2023-02-15T02:49:08;55.35;;;26.98;;
29314;SDS011;16320;53.954;9.506;2023-02-15T02:55:50;57.67;;;27.58;;
29314;SDS011;16320;53.954;9.506;2023-02-15T02:59:24;59.42;;;28.17;;
29314;SDS011;16320;53.954;9.506;2023-02-15T03:02:37;56.53;;;28.98;;
29314;SDS011;16320;53.954;9.506;2023-02-15T03:05:48;58.33;;;28.85;;
29314;SDS011;16320;53.954;9.506;2023-02-15T03:09:01;119.80;;;32.50;;
29314;SDS011;16320;53.954;9.506;2023-02-15T03:12:19;76.80;;;30.50;;
29314;SDS011;16320;53.954;9.506;2023-02-15T03:15:36;67.05;;;29.33;;
29314;SDS011;16320;53.954;9.506;2023-02-15T03:22:26;83.75;;;31.50;;
29314;SDS011;16320;53.954;9.506;2023-02-15T03:25:44;91.50;;;30.35;;
29314;SDS011;16320;53.954;9.506;2023-02-15T03:28:55;143.55;;;31.35;;
29314;SDS011;16320;53.954;9.506;2023-02-15T03:32:02;88.90;;;30.42;;
29314;SDS011;16320;53.954;9.506;2023-02-15T03:35:10;64.50;;;30.58;;
29314;SDS011;16320;53.954;9.506;2023-02-15T03:38:17;67.28;;;30.02;;
29314;SDS011;16320;53.954;9.506;2023-02-15T03:41:31;95.65;;;28.35;;
29314;SDS011;16320;53.954;9.506;2023-02-15T03:44:54;102.45;;;29.70;;
29314;SDS011;16320;53.954;9.506;2023-02-15T03:48:03;86.90;;;29.00;;
29314;SDS011;16320;53.954;9.506;2023-02-15T03:51:11;90.43;;;29.58;;
29314;SDS011;16320;53.954;9.506;2023-02-15T03:54:39;63.55;;;26.95;;
29314;SDS011;16320;53.954;9.506;2023-02-15T03:57:46;67.50;;;29.65;;
29314;SDS011;16320;53.954;9.506;2023-02-15T04:01:13;60.10;;;28.83;;
29314;SDS011;16320;53.954;9.506;2023-02-15T04:04:55;79.78;;;27.35;;
29314;SDS011;16320;53.954;9.506;2023-02-15T04:07:59;52.47;;;26.48;;
29314;SDS011;16320;53.954;9.506;2023-02-15T04:11:04;61.35;;;26.75;;
29314;SDS011;16320;53.954;9.506;2023-02-15T04:14:08;70.07;;;24.88;;
29314;SDS011;16320;53.954;9.506;2023-02-15T04:17:31;80.00;;;27.20;;
29314;SDS011;16320;53.954;9.506;2023-02-15T04:20:35;77.25;;;26.45;;
29314;SDS011;16320;53.954;9.506;2023-02-15T04:23:58;87.97;;;26.65;;
29314;SDS011;16320;53.954;9.506;2023-02-15T04:27:21;110.63;;;27.42;;
29314;SDS011;16320;53.954;9.506;2023-02-15T04:30:25;104.88;;;25.83;;
29314;SDS011;16320;53.954;9.506;2023-02-15T04:33:30;103.95;;;26.88;;
29314;SDS011;16320;53.954;9.506;2023-02-15T04:36:34;92.65;;;24.95;;
29314;SDS011;16320;53.954;9.506;2023-02-15T04:39:39;118.18;;;28.65;;
29314;SDS011;16320;53.954;9.506;2023-02-15T04:42:43;76.30;;;23.15;;
29314;SDS011;16320;53.954;9.506;2023-02-15T04:45:50;65.70;;;25.30;;
29314;SDS011;16320;53.954;9.506;2023-02-15T04:48:55;84.63;;;23.73;;
29314;SDS011;16320;53.954;9.506;2023-02-15T04:52:00;85.80;;;24.63;;
29314;SDS011;16320;53.954;9.506;2023-02-15T04:55:04;192.20;;;26.05;;
29314;SDS011;16320;53.954;9.506;2023-02-15T04:58:09;162.52;;;26.30;;
29314;SDS011;16320;53.954;9.506;2023-02-15T05:01:14;116.13;;;26.23;;
29314;SDS011;16320;53.954;9.506;2023-02-15T05:04:18;207.40;;;29.17;;
29314;SDS011;16320;53.954;9.506;2023-02-15T05:07:22;108.95;;;23.35;;
29314;SDS011;16320;53.954;9.506;2023-02-15T05:10:27;97.55;;;24.58;;
29314;SDS011;16320;53.954;9.506;2023-02-15T05:13:31;181.07;;;27.45;;
29314;SDS011;16320;53.954;9.506;2023-02-15T05:16:35;93.50;;;25.27;;
29314;SDS011;16320;53.954;9.506;2023-02-15T05:19:39;100.38;;;24.30;;
29314;SDS011;16320;53.954;9.506;2023-02-15T05:22:44;100.65;;;26.70;;
29314;SDS011;16320;53.954;9.506;2023-02-15T05:25:48;89.57;;;25.70;;
29314;SDS011;16320;53.954;9.506;2023-02-15T05:29:13;149.82;;;29.08;;
29314;SDS011;16320;53.954;9.506;2023-02-15T05:32:17;126.25;;;26.42;;
29314;SDS011;16320;53.954;9.506;2023-02-15T05:35:21;98.88;;;25.15;;
29314;SDS011;16320;53.954;9.506;2023-02-15T05:38:26;119.80;;;26.45;;
29314;SDS011;16320;53.954;9.506;2023-02-15T05:41:30;101.90;;;25.98;;
29314;SDS011;16320;53.954;9.506;2023-02-15T05:44:35;76.88;;;25.30;;
29314;SDS011;16320;53.954;9.506;2023-02-15T05:47:39;96.00;;;24.00;;
29314;SDS011;16320;53.954;9.506;2023-02-15T05:50:44;122.15;;;26.02;;
29314;SDS011;16320;53.954;9.506;2023-02-15T05:53:48;109.63;;;26.25;;
29314;SDS011;16320;53.954;9.506;2023-02-15T05:56:53;124.80;;;25.92;;
29314;SDS011;16320;53.954;9.506;2023-02-15T05:59:57;231.77;;;27.60;;
29314;SDS011;16320;53.954;9.506;2023-02-15T06:03:01;225.05;;;29.27;;
29314;SDS011;16320;53.954;9.506;2023-02-15T06:06:06;223.30;;;27.10;;
29314;SDS011;16320;53.954;9.506;2023-02-15T06:09:11;165.85;;;27.80;;
29314;SDS011;16320;53.954;9.506;2023-02-15T06:12:16;120.45;;;25.52;;
29314;SDS011;16320;53.954;9.506;2023-02-15T06:15:20;161.32;;;26.75;;
29314;SDS011;16320;53.954;9.506;2023-02-15T06:18:25;130.43;;;25.48;;
29314;SDS011;16320;53.954;9.506;2023-02-15T06:21:30;122.88;;;24.95;;
29314;SDS011;16320;53.954;9.506;2023-02-15T06:24:35;113.47;;;27.02;;
29314;SDS011;16320;53.954;9.506;2023-02-15T06:27:42;89.97;;;23.98;;
29314;SDS011;16320;53.954;9.506;2023-02-15T06:30:46;120.38;;;24.50;;
29314;SDS011;16320;53.954;9.506;2023-02-15T06:33:51;118.97;;;24.75;;
29314;SDS011;16320;53.954;9.506;2023-02-15T06:36:55;126.20;;;26.70;;
29314;SDS011;16320;53.954;9.506;2023-02-15T06:40:00;103.90;;;24.98;;
29314;SDS011;16320;53.954;9.506;2023-02-15T06:43:06;113.93;;;24.17;;
29314;SDS011;16320;53.954;9.506;2023-02-15T06:46:11;142.25;;;26.85;;
29314;SDS011;16320;53.954;9.506;2023-02-15T06:49:15;160.70;;;26.17;;
29314;SDS011;16320;53.954;9.506;2023-02-15T06:52:19;149.98;;;27.15;;
29314;SDS011;16320;53.954;9.506;2023-02-15T06:55:24;138.93;;;24.27;;
29314;SDS011;16320;53.954;9.506;2023-02-15T06:58:29;73.85;;;22.77;;
29314;SDS011;16320;53.954;9.506;2023-02-15T07:01:34;99.40;;;24.42;;
29314;SDS011;16320;53.954;9.506;2023-02-15T07:04:40;154.10;;;27.45;;
29314;SDS011;16320;53.954;9.506;2023-02-15T07:07:45;132.20;;;23.35;;
29314;SDS011;16320;53.954;9.506;2023-02-15T07:10:50;116.75;;;24.17;;
29314;SDS011;16320;53.954;9.506;2023-02-15T07:13:56;144.50;;;24.35;;
29314;SDS011;16320;53.954;9.506;2023-02-15T07:17:00;129.70;;;25.92;;
29314;SDS011;16320;53.954;9.506;2023-02-15T07:20:06;104.53;;;23.17;;
29314;SDS011;16320;53.954;9.506;2023-02-15T07:23:40;164.32;;;23.60;;
29314;SDS011;16320;53.954;9.506;2023-02-15T07:26:44;91.15;;;26.27;;
29314;SDS011;16320;53.954;9.506;2023-02-15T07:29:48;82.88;;;25.50;;
29314;SDS011;16320;53.954;9.506;2023-02-15T07:32:56;115.15;;;24.90;;
29314;SDS011;16320;53.954;9.506;2023-02-15T07:36:20;82.75;;;25.00;;
29314;SDS011;16320;53.954;9.506;2023-02-15T07:39:24;127.38;;;25.88;;
29314;SDS011;16320;53.954;9.506;2023-02-15T07:42:30;122.95;;;26.25;;
29314;SDS011;16320;53.954;9.506;2023-02-15T07:45:34;114.68;;;25.40;;
29314;SDS011;16320;53.954;9.506;2023-02-15T07:48:39;86.97;;;23.85;;
29314;SDS011;16320;53.954;9.506;2023-02-15T07:51:45;126.55;;;26.55;;
29314;SDS011;16320;53.954;9.506;2023-02-15T07:54:49;131.45;;;29.27;;
29314;SDS011;16320;53.954;9.506;2023-02-15T07:57:54;157.85;;;27.25;;
29314;SDS011;16320;53.954;9.506;2023-02-15T08:00:58;142.77;;;27.23;;
29314;SDS011;16320;53.954;9.506;2023-02-15T08:04:06;119.30;;;26.38;;
29314;SDS011;16320;53.954;9.506;2023-02-15T08:07:13;97.57;;;27.35;;
29314;SDS011;16320;53.954;9.506;2023-02-15T08:10:17;116.93;;;27.73;;
29314;SDS011;16320;53.954;9.506;2023-02-15T08:13:43;126.20;;;29.10;;
29314;SDS011;16320;53.954;9.506;2023-02-15T08:16:58;94.45;;;25.33;;
29314;SDS011;16320;53.954;9.506;2023-02-15T08:20:08;141.80;;;27.80;;
29314;SDS011;16320;53.954;9.506;2023-02-15T08:23:13;148.07;;;32.35;;
29314;SDS011;16320;53.954;9.506;2023-02-15T08:26:17;101.32;;;25.85;;
29314;SDS011;16320;53.954;9.506;2023-02-15T08:29:23;162.45;;;30.67;;
29314;SDS011;16320;53.954;9.506;2023-02-15T08:32:30;118.30;;;28.33;;
29314;SDS011;16320;53.954;9.506;2023-02-15T08:35:34;128.52;;;29.15;;
29314;SDS011;16320;53.954;9.506;2023-02-15T08:38:39;176.88;;;31.23;;
29314;SDS011;16320;53.954;9.506;2023-02-15T08:41:45;150.30;;;30.75;;
29314;SDS011;16320;53.954;9.506;2023-02-15T08:44:51;95.03;;;31.58;;
29314;SDS011;16320;53.954;9.506;2023-02-15T08:47:55;118.57;;;29.10;;
29314;SDS011;16320;53.954;9.506;2023-02-15T08:51:04;122.47;;;29.75;;
29314;SDS011;16320;53.954;9.506;2023-02-15T08:54:15;122.25;;;29.63;;
29314;SDS011;16320;53.954;9.506;2023-02-15T08:57:22;99.80;;;28.42;;
29314;SDS011;16320;53.954;9.506;2023-02-15T09:00:26;80.30;;;28.02;;
29314;SDS011;16320;53.954;9.506;2023-02-15T09:03:32;106.28;;;28.63;;
29314;SDS011;16320;53.954;9.506;2023-02-15T09:06:37;111.75;;;29.38;;
29314;SDS011;16320;53.954;9.506;2023-02-15T09:09:43;133.38;;;28.73;;
29314;SDS011;16320;53.954;9.506;2023-02-15T09:12:48;121.97;;;28.42;;
29314;SDS011;16320;53.954;9.506;2023-02-15T09:15:58;119.78;;;26.50;;
29314;SDS011;16320;53.954;9.506;2023-02-15T09:19:05;98.82;;;26.05;;
29314;SDS011;16320;53.954;9.506;2023-02-15T09:22:10;99.18;;;28.05;;
29314;SDS011;16320;53.954;9.506;2023-02-15T09:25:14;106.38;;;29.60;;
29314;SDS011;16320;53.954;9.506;2023-02-15T09:28:19;108.55;;;27.38;;
29314;SDS011;16320;53.954;9.506;2023-02-15T09:31:24;83.57;;;28.83;;
29314;SDS011;16320;53.954;9.506;2023-02-15T09:34:32;72.65;;;28.23;;
29314;SDS011;16320;53.954;9.506;2023-02-15T09:37:37;112.85;;;28.40;;
29314;SDS011;16320;53.954;9.506;2023-02-15T09:40:43;117.97;;;28.73;;
29314;SDS011;16320;53.954;9.506;2023-02-15T09:50:53;105.00;;;26.70;;
29314;SDS011;16320;53.954;9.506;2023-02-15T10:16:59;85.05;;;27.35;;
29314;SDS011;16320;53.954;9.506;2023-02-15T10:24:02;78.05;;;27.05;;
29314;SDS011;16320;53.954;9.506;2023-02-15T10:27:48;96.30;;;27.58;;
29314;SDS011;16320;53.954;9.506;2023-02-15T10:30:55;86.40;;;27.23;;
29314;SDS011;16320;53.954;9.506;2023-02-15T10:34:38;102.05;;;29.13;;
29314;SDS011;16320;53.954;9.506;2023-02-15T10:45:16;70.88;;;26.13;;
29314;SDS011;16320;53.954;9.506;2023-02-15T11:06:15;73.47;;;26.70;;
29314;SDS011;16320;53.954;9.506;2023-02-15T11:09:02;88.15;;;28.23;;
29314;SDS011;16320;53.954;9.506;2023-02-15T11:12:14;80.78;;;27.55;;
29314;SDS011;16320;53.954;9.506;2023-02-15T11:15:31;74.55;;;27.33;;
29314;SDS011;16320;53.954;9.506;2023-02-15T11:22:02;60.22;;;26.85;;
29314;SDS011;16320;53.954;9.506;2023-02-15T11:25:23;82.43;;;28.70;;
29314;SDS011;16320;53.954;9.506;2023-02-15T11:28:55;74.18;;;27.65;;
29314;SDS011;16320;53.954;9.506;2023-02-15T11:35:47;85.53;;;29.60;;
29314;SDS011;16320;53.954;9.506;2023-02-15T11:39:12;97.63;;;29.75;;
29314;SDS011;16320;53.954;9.506;2023-02-15T11:42:22;60.63;;;28.55;;
29314;SDS011;16320;53.954;9.506;2023-02-15T11:45:29;86.82;;;29.48;;
29314;SDS011;16320;53.954;9.506;2023-02-15T11:48:37;86.03;;;31.10;;
29314;SDS011;16320;53.954;9.506;2023-02-15T11:51:43;67.18;;;31.17;;
29314;SDS011;16320;53.954;9.506;2023-02-15T11:54:47;75.15;;;28.95;;
29314;SDS011;16320;53.954;9.506;2023-02-15T12:01:32;70.75;;;29.70;;
29314;SDS011;16320;53.954;9.506;2023-02-15T12:04:41;83.15;;;29.20;;
29314;SDS011;16320;53.954;9.506;2023-02-15T12:07:58;56.00;;;26.33;;
29314;SDS011;16320;53.954;9.506;2023-02-15T12:11:11;79.60;;;30.60;;
29314;SDS011;16320;53.954;9.506;2023-02-15T12:14:22;68.57;;;30.42;;
29314;SDS011;16320;53.954;9.506;2023-02-15T12:17:27;73.18;;;29.48;;
29314;SDS011;16320;53.954;9.506;2023-02-15T12:20:59;68.20;;;31.20;;
29314;SDS011;16320;53.954;9.506;2023-02-15T12:24:21;69.80;;;30.88;;
29314;SDS011;16320;53.954;9.506;2023-02-15T12:27:33;63.40;;;30.40;;
29314;SDS011;16320;53.954;9.506;2023-02-15T12:30:38;54.63;;;29.95;;
29314;SDS011;16320;53.954;9.506;2023-02-15T12:33:47;102.10;;;33.10;;
29314;SDS011;16320;53.954;9.506;2023-02-15T12:36:55;69.35;;;33.25;;
29314;SDS011;16320;53.954;9.506;2023-02-15T12:40:25;72.75;;;31.25;;
29314;SDS011;16320;53.954;9.506;2023-02-15T12:43:35;69.90;;;32.30;;
29314;SDS011;16320;53.954;9.506;2023-02-15T12:46:41;78.70;;;33.67;;
29314;SDS011;16320;53.954;9.506;2023-02-15T12:53:31;68.47;;;32.47;;
29314;SDS011;16320;53.954;9.506;2023-02-15T12:56:38;72.22;;;32.58;;
29314;SDS011;16320;53.954;9.506;2023-02-15T12:59:56;80.65;;;34.90;;
29314;SDS011;16320;53.954;9.506;2023-02-15T13:03:22;85.72;;;33.28;;
29314;SDS011;16320;53.954;9.506;2023-02-15T13:06:28;61.50;;;32.50;;
29314;SDS011;16320;53.954;9.506;2023-02-15T13:09:38;73.88;;;30.92;;
29314;SDS011;16320;53.954;9.506;2023-02-15T13:12:46;131.27;;;32.55;;
29314;SDS011;16320;53.954;9.506;2023-02-15T13:15:52;62.00;;;31.38;;
29314;SDS011;16320;53.954;9.506;2023-02-15T13:19:03;94.45;;;32.45;;
29314;SDS011;16320;53.954;9.506;2023-02-15T13:22:24;73.15;;;31.50;;
29314;SDS011;16320;53.954;9.506;2023-02-15T13:25:46;72.28;;;32.13;;
29314;SDS011;16320;53.954;9.506;2023-02-15T13:28:54;67.88;;;36.28;;
29314;SDS011;16320;53.954;9.506;2023-02-15T13:35:39;80.68;;;38.30;;
29314;SDS011;16320;53.954;9.506;2023-02-15T13:49:09;88.00;;;41.25;;
29314;SDS011;16320;53.954;9.506;2023-02-15T13:52:27;76.53;;;39.40;;
29314;SDS011;16320;53.954;9.506;2023-02-15T13:55:37;79.35;;;43.03;;
29314;SDS011;16320;53.954;9.506;2023-02-15T14:05:29;90.00;;;44.80;;
29314;SDS011;16320;53.954;9.506;2023-02-15T14:19:23;104.10;;;50.60;;
29314;SDS011;16320;53.954;9.506;2023-02-15T14:22:49;93.88;;;46.95;;
29314;SDS011;16320;53.954;9.506;2023-02-15T14:30:20;98.95;;;47.72;;
29314;SDS011;16320;53.954;9.506;2023-02-15T14:33:35;86.97;;;47.40;;
29314;SDS011;16320;53.954;9.506;2023-02-15T14:36:50;107.38;;;51.42;;
29314;SDS011;16320;53.954;9.506;2023-02-15T14:40:00;100.40;;;47.28;;
29314;SDS011;16320;53.954;9.506;2023-02-15T14:47:42;96.03;;;49.90;;
29314;SDS011;16320;53.954;9.506;2023-02-15T14:50:56;89.97;;;48.08;;
29314;SDS011;16320;53.954;9.506;2023-02-15T14:54:01;93.28;;;47.13;;
29314;SDS011;16320;53.954;9.506;2023-02-15T15:00:43;91.90;;;46.03;;
29314;SDS011;16320;53.954;9.506;2023-02-15T15:03:48;87.53;;;46.40;;
29314;SDS011;16320;53.954;9.506;2023-02-15T15:06:59;92.15;;;44.40;;
29314;SDS011;16320;53.954;9.506;2023-02-15T15:10:49;94.65;;;44.88;;
29314;SDS011;16320;53.954;9.506;2023-02-15T15:13:59;81.93;;;43.13;;
29314;SDS011;16320;53.954;9.506;2023-02-15T15:17:04;79.38;;;43.95;;
29314;SDS011;16320;53.954;9.506;2023-02-15T15:20:11;81.03;;;44.25;;
29314;SDS011;16320;53.954;9.506;2023-02-15T15:23:39;81.40;;;45.45;;
29314;SDS011;16320;53.954;9.506;2023-02-15T15:26:48;77.97;;;44.20;;
29314;SDS011;16320;53.954;9.506;2023-02-15T15:29:54;101.78;;;56.85;;
29314;SDS011;16320;53.954;9.506;2023-02-15T15:32:59;96.97;;;47.13;;
29314;SDS011;16320;53.954;9.506;2023-02-15T15:51:04;91.88;;;46.67;;
29314;SDS011;16320;53.954;9.506;2023-02-15T15:54:20;103.88;;;49.45;;
29314;SDS011;16320;53.954;9.506;2023-02-15T16:00:46;121.43;;;54.67;;
29314;SDS011;16320;53.954;9.506;2023-02-15T16:04:13;103.47;;;51.47;;
29314;SDS011;16320;53.954;9.506;2023-02-15T16:07:33;107.93;;;51.70;;
29314;SDS011;16320;53.954;9.506;2023-02-15T16:10:37;107.97;;;53.50;;
29314;SDS011;16320;53.954;9.506;2023-02-15T16:13:43;123.85;;;52.90;;
29314;SDS011;16320;53.954;9.506;2023-02-15T16:16:49;113.55;;;53.05;;
29314;SDS011;16320;53.954;9.506;2023-02-15T16:20:06;105.15;;;51.83;;
29314;SDS011;16320;53.954;9.506;2023-02-15T16:33:33;111.63;;;52.88;;
29314;SDS011;16320;53.954;9.506;2023-02-15T16:36:40;108.40;;;51.92;;
29314;SDS011;16320;53.954;9.506;2023-02-15T16:39:45;110.03;;;53.20;;
29314;SDS011;16320;53.954;9.506;2023-02-15T16:42:51;114.20;;;54.35;;
29314;SDS011;16320;53.954;9.506;2023-02-15T16:46:06;117.50;;;55.88;;
29314;SDS011;16320;53.954;9.506;2023-02-15T16:49:17;112.70;;;52.55;;
29314;SDS011;16320;53.954;9.506;2023-02-15T16:52:28;117.95;;;55.65;;
29314;SDS011;16320;53.954;9.506;2023-02-15T16:55:40;115.03;;;53.35;;
29314;SDS011;16320;53.954;9.506;2023-02-15T16:58:46;121.55;;;55.50;;
29314;SDS011;16320;53.954;9.506;2023-02-15T17:01:56;116.65;;;53.47;;
29314;SDS011;16320;53.954;9.506;2023-02-15T17:08:16;125.25;;;55.17;;
29314;SDS011;16320;53.954;9.506;2023-02-15T17:11:33;124.45;;;53.55;;
29314;SDS011;16320;53.954;9.506;2023-02-15T17:14:45;122.43;;;56.13;;
29314;SDS011;16320;53.954;9.506;2023-02-15T17:17:50;119.40;;;53.45;;
29314;SDS011;16320;53.954;9.506;2023-02-15T17:20:55;110.63;;;52.28;;
29314;SDS011;16320;53.954;9.506;2023-02-15T17:24:04;108.00;;;51.35;;
29314;SDS011;16320;53.954;9.506;2023-02-15T17:27:19;110.10;;;49.95;;
29314;SDS011;16320;53.954;9.506;2023-02-15T17:30:32;110.03;;;53.13;;
29314;SDS011;16320;53.954;9.506;2023-02-15T17:33:41;118.63;;;53.83;;
29314;SDS011;16320;53.954;9.506;2023-02-15T17:36:58;122.72;;;55.65;;
29314;SDS011;16320;53.954;9.506;2023-02-15T17:43:34;145.07;;;66.90;;
29314;SDS011;16320;53.954;9.506;2023-02-15T17:46:39;147.25;;;64.78;;
29314;SDS011;16320;53.954;9.506;2023-02-15T17:49:44;210.25;;;90.60;;
29314;SDS011;16320;53.954;9.506;2023-02-15T17:52:53;191.05;;;83.20;;
29314;SDS011;16320;53.954;9.506;2023-02-15T17:55:59;177.40;;;74.97;;
29314;SDS011;16320;53.954;9.506;2023-02-15T17:59:13;137.57;;;58.20;;
29314;SDS011;16320;53.954;9.506;2023-02-15T18:02:17;184.93;;;77.90;;
29314;SDS011;16320;53.954;9.506;2023-02-15T18:05:40;196.95;;;80.82;;
29314;SDS011;16320;53.954;9.506;2023-02-15T18:09:04;174.53;;;75.77;;
29314;SDS011;16320;53.954;9.506;2023-02-15T18:12:29;190.30;;;77.13;;
29314;SDS011;16320;53.954;9.506;2023-02-15T18:15:36;185.57;;;77.97;;
29314;SDS011;16320;53.954;9.506;2023-02-15T18:18:41;183.52;;;72.72;;
29314;SDS011;16320;53.954;9.506;2023-02-15T18:21:47;165.48;;;67.90;;
29314;SDS011;16320;53.954;9.506;2023-02-15T18:24:55;197.25;;;80.57;;
29314;SDS011;16320;53.954;9.506;2023-02-15T18:27:59;201.05;;;81.70;;
29314;SDS011;16320;53.954;9.506;2023-02-15T18:31:03;194.85;;;81.57;;
29314;SDS011;16320;53.954;9.506;2023-02-15T18:34:17;205.75;;;79.25;;
29314;SDS011;16320;53.954;9.506;2023-02-15T18:37:42;191.25;;;76.95;;
29314;SDS011;16320;53.954;9.506;2023-02-15T18:40:47;172.57;;;73.00;;
29314;SDS011;16320;53.954;9.506;2023-02-15T18:43:53;211.63;;;87.78;;
29314;SDS011;16320;53.954;9.506;2023-02-15T18:46:58;202.82;;;83.28;;
29314;SDS011;16320;53.954;9.506;2023-02-15T18:50:03;188.30;;;73.93;;
29314;SDS011;16320;53.954;9.506;2023-02-15T18:53:14;185.25;;;73.60;;
29314;SDS011;16320;53.954;9.506;2023-02-15T18:56:23;190.48;;;74.97;;
29314;SDS011;16320;53.954;9.506;2023-02-15T18:59:27;170.02;;;70.65;;
29314;SDS011;16320;53.954;9.506;2023-02-15T19:02:34;170.38;;;67.03;;
29314;SDS011;16320;53.954;9.506;2023-02-15T19:05:39;182.30;;;70.05;;
29314;SDS011;16320;53.954;9.506;2023-02-15T19:08:48;163.80;;;67.68;;
29314;SDS011;16320;53.954;9.506;2023-02-15T19:11:56;165.40;;;67.22;;
29314;SDS011;16320;53.954;9.506;2023-02-15T19:15:01;166.40;;;68.97;;
29314;SDS011;16320;53.954;9.506;2023-02-15T19:18:06;170.35;;;67.97;;
29314;SDS011;16320;53.954;9.506;2023-02-15T19:21:13;176.52;;;69.93;;
29314;SDS011;16320;53.954;9.506;2023-02-15T19:24:22;170.35;;;66.82;;
29314;SDS011;16320;53.954;9.506;2023-02-15T19:27:42;169.75;;;69.35;;
29314;SDS011;16320;53.954;9.506;2023-02-15T19:30:48;160.13;;;66.80;;
29314;SDS011;16320;53.954;9.506;2023-02-15T19:33:52;165.73;;;64.43;;
29314;SDS011;16320;53.954;9.506;2023-02-15T19:36:56;160.55;;;65.75;;
29314;SDS011;16320;53.954;9.506;2023-02-15T19:40:00;165.20;;;64.78;;
29314;SDS011;16320;53.954;9.506;2023-02-15T19:43:14;162.27;;;65.35;;
29314;SDS011;16320;53.954;9.506;2023-02-15T19:46:22;208.70;;;80.50;;
29314;SDS011;16320;53.954;9.506;2023-02-15T19:49:27;187.23;;;74.55;;
29314;SDS011;16320;53.954;9.506;2023-02-15T19:52:31;178.68;;;71.43;;
29314;SDS011;16320;53.954;9.506;2023-02-15T19:55:36;151.18;;;63.38;;
29314;SDS011;16320;53.954;9.506;2023-02-15T19:58:41;166.27;;;70.47;;
29314;SDS011;16320;53.954;9.506;2023-02-15T20:01:45;194.25;;;78.35;;
29314;SDS011;16320;53.954;9.506;2023-02-15T20:04:50;168.20;;;71.40;;
29314;SDS011;16320;53.954;9.506;2023-02-15T20:07:54;152.20;;;66.53;;
29314;SDS011;16320;53.954;9.506;2023-02-15T20:10:59;143.75;;;63.53;;
29314;SDS011;16320;53.954;9.506;2023-02-15T20:14:17;131.23;;;59.13;;
29314;SDS011;16320;53.954;9.506;2023-02-15T20:17:26;135.98;;;58.80;;
29314;SDS011;16320;53.954;9.506;2023-02-15T20:20:47;131.35;;;61.50;;
29314;SDS011;16320;53.954;9.506;2023-02-15T20:23:55;122.75;;;57.70;;
29314;SDS011;16320;53.954;9.506;2023-02-15T20:26:59;119.45;;;58.72;;
29314;SDS011;16320;53.954;9.506;2023-02-15T20:30:06;130.63;;;57.47;;
29314;SDS011;16320;53.954;9.506;2023-02-15T20:33:22;121.15;;;55.63;;
29314;SDS011;16320;53.954;9.506;2023-02-15T20:36:27;105.90;;;52.42;;
29314;SDS011;16320;53.954;9.506;2023-02-15T20:39:32;123.50;;;57.45;;
29314;SDS011;16320;53.954;9.506;2023-02-15T20:42:37;109.25;;;52.53;;
29314;SDS011;16320;53.954;9.506;2023-02-15T20:45:42;106.30;;;50.03;;
29314;SDS011;16320;53.954;9.506;2023-02-15T20:48:46;108.07;;;52.55;;
29314;SDS011;16320;53.954;9.506;2023-02-15T20:51:55;108.53;;;53.70;;
29314;SDS011;16320;53.954;9.506;2023-02-15T20:55:01;96.90;;;48.65;;
29314;SDS011;16320;53.954;9.506;2023-02-15T20:58:12;101.95;;;50.67;;
29314;SDS011;16320;53.954;9.506;2023-02-15T21:04:35;103.10;;;49.65;;
29314;SDS011;16320;53.954;9.506;2023-02-15T21:07:39;100.18;;;49.53;;
29314;SDS011;16320;53.954;9.506;2023-02-15T21:10:44;95.75;;;47.15;;
29314;SDS011;16320;53.954;9.506;2023-02-15T21:13:50;94.80;;;45.08;;
29314;SDS011;16320;53.954;9.506;2023-02-15T21:16:55;87.57;;;44.17;;
29314;SDS011;16320;53.954;9.506;2023-02-15T21:19:59;95.28;;;44.88;;
29314;SDS011;16320;53.954;9.506;2023-02-15T21:23:03;94.15;;;44.63;;
29314;SDS011;16320;53.954;9.506;2023-02-15T21:26:12;88.07;;;43.70;;